sensor_id;sensor_type;location;lat;lon;timestamp;P1;durP1;ratioP1;P2;durP2;ratioP2
29358;SDS011;16347;53.232;6.556;2023-01-23T00:01:32;10.57;;;4.72;;
29358;SDS011;16347;53.232;6.556;2023-01-23T00:04:03;10.73;;;4.32;;
29358;SDS011;16347;53.232;6.556;2023-01-23T00:06:31;15.18;;;4.80;;
29358;SDS011;16347;53.232;6.556;2023-01-23T00:08:59;18.58;;;5.07;;
29358;SDS011;16347;53.232;6.556;2023-01-23T00:11:27;10.20;;;4.53;;
29358;SDS011;16347;53.232;6.556;2023-01-23T00:13:58;16.80;;;5.30;;
29358;SDS011;16347;53.232;6.556;2023-01-23T00:16:28;13.27;;;4.57;;
29358;SDS011;16347;53.232;6.556;2023-01-23T00:18:57;11.90;;;4.95;;
29358;SDS011;16347;53.232;6.556;2023-01-23T00:21:27;9.52;;;3.80;;
29358;SDS011;16347;53.232;6.556;2023-01-23T00:23:57;19.20;;;4.78;;
29358;SDS011;16347;53.232;6.556;2023-01-23T00:26:28;11.98;;;4.70;;
29358;SDS011;16347;53.232;6.556;2023-01-23T00:28:58;14.75;;;4.35;;
29358;SDS011;16347;53.232;6.556;2023-01-23T00:31:27;15.20;;;5.35;;
29358;SDS011;16347;53.232;6.556;2023-01-23T00:33:57;10.10;;;4.35;;
29358;SDS011;16347;53.232;6.556;2023-01-23T00:36:29;9.98;;;4.22;;
29358;SDS011;16347;53.232;6.556;2023-01-23T00:38:58;14.27;;;4.53;;
29358;SDS011;16347;53.232;6.556;2023-01-23T00:41:26;8.30;;;3.97;;
29358;SDS011;16347;53.232;6.556;2023-01-23T00:43:54;13.35;;;4.20;;
29358;SDS011;16347;53.232;6.556;2023-01-23T00:46:22;14.15;;;5.00;;
29358;SDS011;16347;53.232;6.556;2023-01-23T00:48:51;16.38;;;4.28;;
29358;SDS011;16347;53.232;6.556;2023-01-23T00:51:19;12.57;;;4.35;;
29358;SDS011;16347;53.232;6.556;2023-01-23T00:53:49;11.10;;;4.10;;
29358;SDS011;16347;53.232;6.556;2023-01-23T00:56:16;16.23;;;4.05;;
29358;SDS011;16347;53.232;6.556;2023-01-23T00:58:45;10.38;;;4.35;;
29358;SDS011;16347;53.232;6.556;2023-01-23T01:01:14;10.10;;;3.70;;
29358;SDS011;16347;53.232;6.556;2023-01-23T01:03:43;11.10;;;3.92;;
29358;SDS011;16347;53.232;6.556;2023-01-23T01:06:11;10.82;;;4.35;;
29358;SDS011;16347;53.232;6.556;2023-01-23T01:08:41;10.00;;;4.28;;
29358;SDS011;16347;53.232;6.556;2023-01-23T01:11:11;14.43;;;4.10;;
29358;SDS011;16347;53.232;6.556;2023-01-23T01:13:39;11.02;;;4.13;;
29358;SDS011;16347;53.232;6.556;2023-01-23T01:16:08;7.93;;;3.65;;
29358;SDS011;16347;53.232;6.556;2023-01-23T01:18:37;7.93;;;3.50;;
29358;SDS011;16347;53.232;6.556;2023-01-23T01:21:06;14.45;;;4.00;;
29358;SDS011;16347;53.232;6.556;2023-01-23T01:23:35;16.85;;;4.68;;
29358;SDS011;16347;53.232;6.556;2023-01-23T01:26:04;10.43;;;4.15;;
29358;SDS011;16347;53.232;6.556;2023-01-23T01:28:35;12.15;;;3.80;;
29358;SDS011;16347;53.232;6.556;2023-01-23T01:31:05;12.20;;;4.85;;
29358;SDS011;16347;53.232;6.556;2023-01-23T01:33:35;9.30;;;3.70;;
29358;SDS011;16347;53.232;6.556;2023-01-23T01:36:06;16.48;;;4.03;;
29358;SDS011;16347;53.232;6.556;2023-01-23T01:38:35;8.15;;;3.90;;
29358;SDS011;16347;53.232;6.556;2023-01-23T01:41:04;13.25;;;4.10;;
29358;SDS011;16347;53.232;6.556;2023-01-23T01:43:34;8.52;;;3.58;;
29358;SDS011;16347;53.232;6.556;2023-01-23T01:46:08;14.15;;;4.25;;
29358;SDS011;16347;53.232;6.556;2023-01-23T01:48:43;11.85;;;3.97;;
29358;SDS011;16347;53.232;6.556;2023-01-23T01:51:16;10.00;;;3.92;;
29358;SDS011;16347;53.232;6.556;2023-01-23T01:53:48;8.98;;;4.07;;
29358;SDS011;16347;53.232;6.556;2023-01-23T01:56:20;10.15;;;3.72;;
29358;SDS011;16347;53.232;6.556;2023-01-23T01:58:50;6.65;;;3.90;;
29358;SDS011;16347;53.232;6.556;2023-01-23T02:01:20;19.80;;;4.15;;
29358;SDS011;16347;53.232;6.556;2023-01-23T02:03:48;13.68;;;3.97;;
29358;SDS011;16347;53.232;6.556;2023-01-23T02:06:18;12.10;;;4.68;;
29358;SDS011;16347;53.232;6.556;2023-01-23T02:08:47;8.77;;;3.58;;
29358;SDS011;16347;53.232;6.556;2023-01-23T02:11:22;10.18;;;3.70;;
29358;SDS011;16347;53.232;6.556;2023-01-23T02:13:52;18.77;;;4.53;;
29358;SDS011;16347;53.232;6.556;2023-01-23T02:16:24;12.23;;;4.78;;
29358;SDS011;16347;53.232;6.556;2023-01-23T02:18:56;11.20;;;4.17;;
29358;SDS011;16347;53.232;6.556;2023-01-23T02:21:27;12.77;;;4.35;;
29358;SDS011;16347;53.232;6.556;2023-01-23T02:24:00;15.43;;;4.60;;
29358;SDS011;16347;53.232;6.556;2023-01-23T02:26:41;8.88;;;3.92;;
29358;SDS011;16347;53.232;6.556;2023-01-23T02:29:10;12.30;;;4.32;;
29358;SDS011;16347;53.232;6.556;2023-01-23T02:31:47;13.15;;;3.95;;
29358;SDS011;16347;53.232;6.556;2023-01-23T02:34:19;11.93;;;3.95;;
29358;SDS011;16347;53.232;6.556;2023-01-23T02:36:49;8.73;;;3.92;;
29358;SDS011;16347;53.232;6.556;2023-01-23T02:39:18;11.35;;;4.10;;
29358;SDS011;16347;53.232;6.556;2023-01-23T02:44:32;17.40;;;4.45;;
29358;SDS011;16347;53.232;6.556;2023-01-23T02:47:03;12.70;;;4.10;;
29358;SDS011;16347;53.232;6.556;2023-01-23T02:49:37;10.63;;;4.00;;
29358;SDS011;16347;53.232;6.556;2023-01-23T02:52:06;15.70;;;4.50;;
29358;SDS011;16347;53.232;6.556;2023-01-23T02:54:35;9.35;;;4.25;;
29358;SDS011;16347;53.232;6.556;2023-01-23T02:57:06;10.07;;;4.35;;
29358;SDS011;16347;53.232;6.556;2023-01-23T02:59:37;10.93;;;4.40;;
29358;SDS011;16347;53.232;6.556;2023-01-23T03:02:23;12.18;;;4.15;;
29358;SDS011;16347;53.232;6.556;2023-01-23T03:04:52;14.52;;;4.20;;
29358;SDS011;16347;53.232;6.556;2023-01-23T03:07:20;13.43;;;4.60;;
29358;SDS011;16347;53.232;6.556;2023-01-23T03:09:48;10.75;;;3.90;;
29358;SDS011;16347;53.232;6.556;2023-01-23T03:12:19;10.45;;;4.13;;
29358;SDS011;16347;53.232;6.556;2023-01-23T03:14:47;15.43;;;3.67;;
29358;SDS011;16347;53.232;6.556;2023-01-23T03:17:19;10.00;;;3.97;;
29358;SDS011;16347;53.232;6.556;2023-01-23T03:19:48;8.98;;;3.90;;
29358;SDS011;16347;53.232;6.556;2023-01-23T03:22:16;10.27;;;3.45;;
29358;SDS011;16347;53.232;6.556;2023-01-23T03:24:44;12.57;;;3.90;;
29358;SDS011;16347;53.232;6.556;2023-01-23T03:27:12;16.73;;;4.40;;
29358;SDS011;16347;53.232;6.556;2023-01-23T03:29:46;10.10;;;3.92;;
29358;SDS011;16347;53.232;6.556;2023-01-23T03:32:32;10.73;;;4.00;;
29358;SDS011;16347;53.232;6.556;2023-01-23T03:35:00;8.57;;;3.88;;
29358;SDS011;16347;53.232;6.556;2023-01-23T03:37:28;11.75;;;3.83;;
29358;SDS011;16347;53.232;6.556;2023-01-23T03:39:56;9.65;;;3.47;;
29358;SDS011;16347;53.232;6.556;2023-01-23T03:42:43;7.53;;;3.85;;
29358;SDS011;16347;53.232;6.556;2023-01-23T03:45:15;12.60;;;4.05;;
29358;SDS011;16347;53.232;6.556;2023-01-23T03:47:44;14.35;;;4.72;;
29358;SDS011;16347;53.232;6.556;2023-01-23T03:50:12;10.05;;;4.43;;
29358;SDS011;16347;53.232;6.556;2023-01-23T03:52:43;13.07;;;4.22;;
29358;SDS011;16347;53.232;6.556;2023-01-23T03:55:11;8.75;;;4.15;;
29358;SDS011;16347;53.232;6.556;2023-01-23T03:57:42;9.48;;;3.75;;
29358;SDS011;16347;53.232;6.556;2023-01-23T04:00:17;8.07;;;3.65;;
29358;SDS011;16347;53.232;6.556;2023-01-23T04:02:54;13.68;;;4.35;;
29358;SDS011;16347;53.232;6.556;2023-01-23T04:05:22;10.68;;;3.72;;
29358;SDS011;16347;53.232;6.556;2023-01-23T04:07:50;11.85;;;4.22;;
29358;SDS011;16347;53.232;6.556;2023-01-23T04:10:18;9.07;;;4.00;;
29358;SDS011;16347;53.232;6.556;2023-01-23T04:12:52;7.72;;;3.50;;
29358;SDS011;16347;53.232;6.556;2023-01-23T04:15:21;9.88;;;3.65;;
29358;SDS011;16347;53.232;6.556;2023-01-23T04:17:54;9.15;;;3.95;;
29358;SDS011;16347;53.232;6.556;2023-01-23T04:20:24;6.35;;;3.65;;
29358;SDS011;16347;53.232;6.556;2023-01-23T04:22:53;8.63;;;4.18;;
29358;SDS011;16347;53.232;6.556;2023-01-23T04:25:22;9.25;;;3.55;;
29358;SDS011;16347;53.232;6.556;2023-01-23T04:27:51;9.88;;;3.60;;
29358;SDS011;16347;53.232;6.556;2023-01-23T04:30:19;11.40;;;3.92;;
29358;SDS011;16347;53.232;6.556;2023-01-23T04:32:49;16.42;;;3.88;;
29358;SDS011;16347;53.232;6.556;2023-01-23T04:35:18;6.53;;;3.88;;
29358;SDS011;16347;53.232;6.556;2023-01-23T04:37:46;10.50;;;3.85;;
29358;SDS011;16347;53.232;6.556;2023-01-23T04:40:15;12.05;;;3.90;;
29358;SDS011;16347;53.232;6.556;2023-01-23T04:42:52;8.70;;;4.03;;
29358;SDS011;16347;53.232;6.556;2023-01-23T04:45:33;13.05;;;3.92;;
29358;SDS011;16347;53.232;6.556;2023-01-23T04:48:17;9.15;;;4.45;;
29358;SDS011;16347;53.232;6.556;2023-01-23T04:50:46;5.82;;;3.85;;
29358;SDS011;16347;53.232;6.556;2023-01-23T04:53:15;9.50;;;4.10;;
29358;SDS011;16347;53.232;6.556;2023-01-23T04:55:45;6.22;;;4.00;;
29358;SDS011;16347;53.232;6.556;2023-01-23T04:58:16;11.85;;;4.57;;
29358;SDS011;16347;53.232;6.556;2023-01-23T05:00:45;11.40;;;4.55;;
29358;SDS011;16347;53.232;6.556;2023-01-23T05:03:17;10.88;;;4.43;;
29358;SDS011;16347;53.232;6.556;2023-01-23T05:05:46;14.00;;;4.18;;
29358;SDS011;16347;53.232;6.556;2023-01-23T05:08:14;13.85;;;4.65;;
29358;SDS011;16347;53.232;6.556;2023-01-23T05:10:49;11.50;;;5.15;;
29358;SDS011;16347;53.232;6.556;2023-01-23T05:13:19;10.65;;;5.03;;
29358;SDS011;16347;53.232;6.556;2023-01-23T05:15:47;10.18;;;5.25;;
29358;SDS011;16347;53.232;6.556;2023-01-23T05:18:17;12.02;;;5.00;;
29358;SDS011;16347;53.232;6.556;2023-01-23T05:20:46;11.38;;;4.88;;
29358;SDS011;16347;53.232;6.556;2023-01-23T05:23:14;10.93;;;5.25;;
29358;SDS011;16347;53.232;6.556;2023-01-23T05:25:49;17.20;;;5.63;;
29358;SDS011;16347;53.232;6.556;2023-01-23T05:28:18;17.55;;;5.45;;
29358;SDS011;16347;53.232;6.556;2023-01-23T05:30:50;10.73;;;5.38;;
29358;SDS011;16347;53.232;6.556;2023-01-23T05:33:27;9.30;;;4.82;;
29358;SDS011;16347;53.232;6.556;2023-01-23T05:35:57;11.70;;;5.22;;
29358;SDS011;16347;53.232;6.556;2023-01-23T05:38:26;9.40;;;4.78;;
29358;SDS011;16347;53.232;6.556;2023-01-23T05:40:54;15.50;;;5.78;;
29358;SDS011;16347;53.232;6.556;2023-01-23T05:43:41;12.52;;;4.85;;
29358;SDS011;16347;53.232;6.556;2023-01-23T05:49:04;11.23;;;5.28;;
29358;SDS011;16347;53.232;6.556;2023-01-23T05:51:33;14.50;;;5.07;;
29358;SDS011;16347;53.232;6.556;2023-01-23T05:54:01;13.10;;;5.45;;
29358;SDS011;16347;53.232;6.556;2023-01-23T05:56:32;8.00;;;4.95;;
29358;SDS011;16347;53.232;6.556;2023-01-23T05:59:18;10.07;;;4.57;;
29358;SDS011;16347;53.232;6.556;2023-01-23T06:02:12;8.43;;;4.32;;
29358;SDS011;16347;53.232;6.556;2023-01-23T06:05:01;14.23;;;5.30;;
29358;SDS011;16347;53.232;6.556;2023-01-23T06:07:59;9.75;;;4.15;;
29358;SDS011;16347;53.232;6.556;2023-01-23T06:10:28;11.07;;;4.70;;
29358;SDS011;16347;53.232;6.556;2023-01-23T06:12:56;8.48;;;4.70;;
29358;SDS011;16347;53.232;6.556;2023-01-23T06:15:24;10.65;;;5.10;;
29358;SDS011;16347;53.232;6.556;2023-01-23T06:17:53;13.23;;;5.72;;
29358;SDS011;16347;53.232;6.556;2023-01-23T06:20:24;10.80;;;4.53;;
29358;SDS011;16347;53.232;6.556;2023-01-23T06:22:53;15.35;;;4.82;;
29358;SDS011;16347;53.232;6.556;2023-01-23T06:25:21;16.20;;;5.18;;
29358;SDS011;16347;53.232;6.556;2023-01-23T06:27:52;10.57;;;5.15;;
29358;SDS011;16347;53.232;6.556;2023-01-23T06:30:22;10.85;;;5.32;;
29358;SDS011;16347;53.232;6.556;2023-01-23T06:32:51;17.50;;;6.43;;
29358;SDS011;16347;53.232;6.556;2023-01-23T06:35:26;10.07;;;5.63;;
29358;SDS011;16347;53.232;6.556;2023-01-23T06:37:56;13.00;;;5.53;;
29358;SDS011;16347;53.232;6.556;2023-01-23T06:40:24;12.88;;;5.53;;
29358;SDS011;16347;53.232;6.556;2023-01-23T06:43:11;9.63;;;5.38;;
29358;SDS011;16347;53.232;6.556;2023-01-23T06:45:42;13.82;;;5.13;;
29358;SDS011;16347;53.232;6.556;2023-01-23T06:48:11;15.48;;;6.30;;
29358;SDS011;16347;53.232;6.556;2023-01-23T06:50:42;15.55;;;5.82;;
29358;SDS011;16347;53.232;6.556;2023-01-23T06:53:12;11.52;;;5.80;;
29358;SDS011;16347;53.232;6.556;2023-01-23T06:55:43;17.40;;;6.18;;
29358;SDS011;16347;53.232;6.556;2023-01-23T06:58:13;13.52;;;6.60;;
29358;SDS011;16347;53.232;6.556;2023-01-23T07:00:42;13.55;;;6.13;;
29358;SDS011;16347;53.232;6.556;2023-01-23T07:03:29;12.88;;;6.20;;
29358;SDS011;16347;53.232;6.556;2023-01-23T07:06:01;13.52;;;6.60;;
29358;SDS011;16347;53.232;6.556;2023-01-23T07:08:32;14.00;;;6.18;;
29358;SDS011;16347;53.232;6.556;2023-01-23T07:11:01;11.77;;;6.43;;
29358;SDS011;16347;53.232;6.556;2023-01-23T07:13:30;16.83;;;6.75;;
29358;SDS011;16347;53.232;6.556;2023-01-23T07:15:58;13.20;;;6.25;;
29358;SDS011;16347;53.232;6.556;2023-01-23T07:18:27;17.55;;;6.97;;
29358;SDS011;16347;53.232;6.556;2023-01-23T07:20:56;17.58;;;7.20;;
29358;SDS011;16347;53.232;6.556;2023-01-23T07:23:26;16.42;;;7.22;;
29358;SDS011;16347;53.232;6.556;2023-01-23T07:25:57;16.23;;;7.97;;
29358;SDS011;16347;53.232;6.556;2023-01-23T07:28:26;18.40;;;8.27;;
29358;SDS011;16347;53.232;6.556;2023-01-23T07:30:54;26.73;;;8.68;;
29358;SDS011;16347;53.232;6.556;2023-01-23T07:33:24;16.30;;;7.50;;
29358;SDS011;16347;53.232;6.556;2023-01-23T07:35:53;15.68;;;7.85;;
29358;SDS011;16347;53.232;6.556;2023-01-23T07:38:22;19.75;;;8.80;;
29358;SDS011;16347;53.232;6.556;2023-01-23T07:40:56;17.65;;;8.18;;
29358;SDS011;16347;53.232;6.556;2023-01-23T07:43:25;22.80;;;8.43;;
29358;SDS011;16347;53.232;6.556;2023-01-23T07:45:56;19.63;;;8.38;;
29358;SDS011;16347;53.232;6.556;2023-01-23T07:48:25;18.48;;;8.07;;
29358;SDS011;16347;53.232;6.556;2023-01-23T07:50:53;17.08;;;8.35;;
29358;SDS011;16347;53.232;6.556;2023-01-23T07:53:22;16.85;;;7.57;;
29358;SDS011;16347;53.232;6.556;2023-01-23T07:55:51;18.35;;;8.15;;
29358;SDS011;16347;53.232;6.556;2023-01-23T07:58:20;27.90;;;7.95;;
29358;SDS011;16347;53.232;6.556;2023-01-23T08:00:49;25.05;;;8.95;;
29358;SDS011;16347;53.232;6.556;2023-01-23T08:03:17;19.98;;;8.05;;
29358;SDS011;16347;53.232;6.556;2023-01-23T08:05:49;17.38;;;7.90;;
29358;SDS011;16347;53.232;6.556;2023-01-23T08:08:18;20.48;;;9.10;;
29358;SDS011;16347;53.232;6.556;2023-01-23T08:10:47;15.35;;;8.30;;
29358;SDS011;16347;53.232;6.556;2023-01-23T08:13:21;17.13;;;8.18;;
29358;SDS011;16347;53.232;6.556;2023-01-23T08:16:01;18.45;;;8.05;;
29358;SDS011;16347;53.232;6.556;2023-01-23T08:18:30;17.55;;;7.70;;
29358;SDS011;16347;53.232;6.556;2023-01-23T08:20:59;17.83;;;8.48;;
29358;SDS011;16347;53.232;6.556;2023-01-23T08:23:28;22.85;;;7.57;;
29358;SDS011;16347;53.232;6.556;2023-01-23T08:25:59;20.90;;;8.07;;
29358;SDS011;16347;53.232;6.556;2023-01-23T08:28:30;14.32;;;7.40;;
29358;SDS011;16347;53.232;6.556;2023-01-23T08:30:59;18.35;;;7.95;;
29358;SDS011;16347;53.232;6.556;2023-01-23T08:33:29;15.95;;;7.40;;
29358;SDS011;16347;53.232;6.556;2023-01-23T08:35:59;13.18;;;7.00;;
29358;SDS011;16347;53.232;6.556;2023-01-23T08:38:28;13.70;;;7.55;;
29358;SDS011;16347;53.232;6.556;2023-01-23T08:40:58;10.50;;;5.78;;
29358;SDS011;16347;53.232;6.556;2023-01-23T08:43:30;13.07;;;7.30;;
29358;SDS011;16347;53.232;6.556;2023-01-23T08:45:59;14.27;;;5.97;;
29358;SDS011;16347;53.232;6.556;2023-01-23T08:48:28;15.10;;;6.80;;
29358;SDS011;16347;53.232;6.556;2023-01-23T08:50:59;11.30;;;5.57;;
29358;SDS011;16347;53.232;6.556;2023-01-23T08:53:29;10.35;;;6.15;;
29358;SDS011;16347;53.232;6.556;2023-01-23T08:55:58;13.75;;;5.78;;
29358;SDS011;16347;53.232;6.556;2023-01-23T08:58:29;9.95;;;5.65;;
29358;SDS011;16347;53.232;6.556;2023-01-23T09:00:57;12.30;;;5.80;;
29358;SDS011;16347;53.232;6.556;2023-01-23T09:03:27;8.75;;;5.35;;
29358;SDS011;16347;53.232;6.556;2023-01-23T09:05:58;11.27;;;5.32;;
29358;SDS011;16347;53.232;6.556;2023-01-23T09:08:28;12.88;;;5.20;;
29358;SDS011;16347;53.232;6.556;2023-01-23T09:10:58;15.13;;;5.47;;
29358;SDS011;16347;53.232;6.556;2023-01-23T09:13:29;9.25;;;5.30;;
29358;SDS011;16347;53.232;6.556;2023-01-23T09:15:58;11.00;;;5.03;;
29358;SDS011;16347;53.232;6.556;2023-01-23T09:18:27;8.63;;;4.82;;
29358;SDS011;16347;53.232;6.556;2023-01-23T09:20:55;9.07;;;4.38;;
29358;SDS011;16347;53.232;6.556;2023-01-23T09:23:25;8.40;;;4.88;;
29358;SDS011;16347;53.232;6.556;2023-01-23T09:25:55;11.80;;;4.90;;
29358;SDS011;16347;53.232;6.556;2023-01-23T09:28:31;15.95;;;5.13;;
29358;SDS011;16347;53.232;6.556;2023-01-23T09:31:03;9.35;;;4.18;;
29358;SDS011;16347;53.232;6.556;2023-01-23T09:33:32;7.82;;;4.50;;
29358;SDS011;16347;53.232;6.556;2023-01-23T09:36:01;11.15;;;4.30;;
29358;SDS011;16347;53.232;6.556;2023-01-23T09:38:29;9.50;;;4.00;;
29358;SDS011;16347;53.232;6.556;2023-01-23T09:41:06;6.82;;;3.90;;
29358;SDS011;16347;53.232;6.556;2023-01-23T09:43:38;7.00;;;4.13;;
29358;SDS011;16347;53.232;6.556;2023-01-23T09:46:14;10.95;;;5.20;;
29358;SDS011;16347;53.232;6.556;2023-01-23T09:48:46;9.25;;;5.03;;
29358;SDS011;16347;53.232;6.556;2023-01-23T09:51:19;7.32;;;4.40;;
29358;SDS011;16347;53.232;6.556;2023-01-23T09:53:53;12.93;;;4.30;;
29358;SDS011;16347;53.232;6.556;2023-01-23T09:56:29;11.95;;;4.85;;
29358;SDS011;16347;53.232;6.556;2023-01-23T09:59:05;10.77;;;4.80;;
29358;SDS011;16347;53.232;6.556;2023-01-23T10:01:39;14.85;;;5.28;;
29358;SDS011;16347;53.232;6.556;2023-01-23T10:04:09;8.23;;;4.95;;
29358;SDS011;16347;53.232;6.556;2023-01-23T10:06:46;8.48;;;5.15;;
29358;SDS011;16347;53.232;6.556;2023-01-23T10:09:31;9.15;;;5.68;;
29358;SDS011;16347;53.232;6.556;2023-01-23T10:12:12;7.47;;;4.78;;
29358;SDS011;16347;53.232;6.556;2023-01-23T10:14:56;11.18;;;6.18;;
29358;SDS011;16347;53.232;6.556;2023-01-23T10:17:36;10.52;;;6.40;;
29358;SDS011;16347;53.232;6.556;2023-01-23T10:23:14;16.85;;;8.15;;
29358;SDS011;16347;53.232;6.556;2023-01-23T10:25:56;12.15;;;6.72;;
29358;SDS011;16347;53.232;6.556;2023-01-23T10:28:27;11.93;;;7.15;;
29358;SDS011;16347;53.232;6.556;2023-01-23T10:31:02;11.13;;;5.80;;
29358;SDS011;16347;53.232;6.556;2023-01-23T10:33:38;11.80;;;5.78;;
29358;SDS011;16347;53.232;6.556;2023-01-23T10:36:15;8.23;;;5.40;;
29358;SDS011;16347;53.232;6.556;2023-01-23T10:38:53;11.07;;;5.97;;
29358;SDS011;16347;53.232;6.556;2023-01-23T10:41:25;11.23;;;5.75;;
29358;SDS011;16347;53.232;6.556;2023-01-23T10:43:54;9.38;;;6.13;;
29358;SDS011;16347;53.232;6.556;2023-01-23T10:46:28;10.85;;;7.20;;
29358;SDS011;16347;53.232;6.556;2023-01-23T10:49:02;12.85;;;7.35;;
29358;SDS011;16347;53.232;6.556;2023-01-23T10:51:32;14.75;;;6.55;;
29358;SDS011;16347;53.232;6.556;2023-01-23T10:54:15;15.45;;;7.30;;
29358;SDS011;16347;53.232;6.556;2023-01-23T10:56:58;10.85;;;6.63;;
29358;SDS011;16347;53.232;6.556;2023-01-23T10:59:30;16.80;;;8.20;;
29358;SDS011;16347;53.232;6.556;2023-01-23T11:02:18;13.00;;;7.57;;
29358;SDS011;16347;53.232;6.556;2023-01-23T11:04:48;16.33;;;7.88;;
29358;SDS011;16347;53.232;6.556;2023-01-23T11:07:19;13.85;;;7.70;;
29358;SDS011;16347;53.232;6.556;2023-01-23T11:09:51;14.65;;;8.18;;
29358;SDS011;16347;53.232;6.556;2023-01-23T11:12:21;16.33;;;8.57;;
29358;SDS011;16347;53.232;6.556;2023-01-23T11:14:51;13.68;;;8.23;;
29358;SDS011;16347;53.232;6.556;2023-01-23T11:17:40;13.25;;;7.80;;
29358;SDS011;16347;53.232;6.556;2023-01-23T11:20:10;15.02;;;8.40;;
29358;SDS011;16347;53.232;6.556;2023-01-23T11:23:02;14.63;;;8.25;;
29358;SDS011;16347;53.232;6.556;2023-01-23T11:25:32;13.90;;;7.40;;
29358;SDS011;16347;53.232;6.556;2023-01-23T11:28:16;16.40;;;8.65;;
29358;SDS011;16347;53.232;6.556;2023-01-23T11:30:49;14.70;;;7.57;;
29358;SDS011;16347;53.232;6.556;2023-01-23T11:33:41;15.98;;;9.65;;
29358;SDS011;16347;53.232;6.556;2023-01-23T11:36:28;20.17;;;8.27;;
29358;SDS011;16347;53.232;6.556;2023-01-23T11:39:08;20.17;;;8.23;;
29358;SDS011;16347;53.232;6.556;2023-01-23T11:41:45;13.00;;;8.05;;
29358;SDS011;16347;53.232;6.556;2023-01-23T11:44:15;16.85;;;9.00;;
29358;SDS011;16347;53.232;6.556;2023-01-23T11:47:01;14.07;;;8.27;;
29358;SDS011;16347;53.232;6.556;2023-01-23T11:49:52;20.27;;;9.27;;
29358;SDS011;16347;53.232;6.556;2023-01-23T11:52:42;15.45;;;8.40;;
29358;SDS011;16347;53.232;6.556;2023-01-23T11:55:22;14.65;;;7.88;;
29358;SDS011;16347;53.232;6.556;2023-01-23T11:58:03;17.63;;;8.63;;
29358;SDS011;16347;53.232;6.556;2023-01-23T12:00:43;15.00;;;7.82;;
29358;SDS011;16347;53.232;6.556;2023-01-23T12:06:39;17.95;;;8.50;;
29358;SDS011;16347;53.232;6.556;2023-01-23T12:09:30;10.23;;;6.55;;
29358;SDS011;16347;53.232;6.556;2023-01-23T12:12:07;12.38;;;6.90;;
29358;SDS011;16347;53.232;6.556;2023-01-23T12:14:48;12.20;;;7.03;;
29358;SDS011;16347;53.232;6.556;2023-01-23T12:17:29;9.90;;;5.47;;
29358;SDS011;16347;53.232;6.556;2023-01-23T12:20:16;10.57;;;5.43;;
29358;SDS011;16347;53.232;6.556;2023-01-23T12:22:58;11.52;;;6.00;;
29358;SDS011;16347;53.232;6.556;2023-01-23T12:25:43;10.45;;;6.03;;
29358;SDS011;16347;53.232;6.556;2023-01-23T12:28:22;15.77;;;7.80;;
29358;SDS011;16347;53.232;6.556;2023-01-23T12:31:08;14.38;;;7.38;;
29358;SDS011;16347;53.232;6.556;2023-01-23T12:33:56;11.48;;;6.95;;
29358;SDS011;16347;53.232;6.556;2023-01-23T12:36:41;12.60;;;7.60;;
29358;SDS011;16347;53.232;6.556;2023-01-23T12:39:48;17.38;;;6.72;;
29358;SDS011;16347;53.232;6.556;2023-01-23T12:42:28;14.52;;;7.18;;
29358;SDS011;16347;53.232;6.556;2023-01-23T12:45:00;13.57;;;6.68;;
29358;SDS011;16347;53.232;6.556;2023-01-23T12:47:40;11.15;;;6.05;;
29358;SDS011;16347;53.232;6.556;2023-01-23T12:50:16;8.40;;;4.60;;
29358;SDS011;16347;53.232;6.556;2023-01-23T12:52:48;9.32;;;4.88;;
29358;SDS011;16347;53.232;6.556;2023-01-23T12:55:21;9.55;;;5.85;;
29358;SDS011;16347;53.232;6.556;2023-01-23T12:57:54;11.95;;;6.53;;
29358;SDS011;16347;53.232;6.556;2023-01-23T13:00:37;9.02;;;6.03;;
29358;SDS011;16347;53.232;6.556;2023-01-23T13:03:25;11.20;;;6.63;;
29358;SDS011;16347;53.232;6.556;2023-01-23T13:06:19;10.07;;;6.43;;
29358;SDS011;16347;53.232;6.556;2023-01-23T13:08:57;14.35;;;6.50;;
29358;SDS011;16347;53.232;6.556;2023-01-23T13:11:48;11.65;;;6.20;;
29358;SDS011;16347;53.232;6.556;2023-01-23T13:14:35;8.55;;;4.95;;
29358;SDS011;16347;53.232;6.556;2023-01-23T13:17:30;6.95;;;4.47;;
29358;SDS011;16347;53.232;6.556;2023-01-23T13:20:20;7.00;;;4.53;;
29358;SDS011;16347;53.232;6.556;2023-01-23T13:23:18;13.90;;;5.70;;
29358;SDS011;16347;53.232;6.556;2023-01-23T13:29:02;13.02;;;6.20;;
29358;SDS011;16347;53.232;6.556;2023-01-23T13:31:37;12.35;;;6.40;;
29358;SDS011;16347;53.232;6.556;2023-01-23T13:40:19;17.27;;;6.35;;
29358;SDS011;16347;53.232;6.556;2023-01-23T13:42:52;11.70;;;5.80;;
29358;SDS011;16347;53.232;6.556;2023-01-23T13:45:23;13.68;;;5.60;;
29358;SDS011;16347;53.232;6.556;2023-01-23T13:47:59;12.15;;;6.13;;
29358;SDS011;16347;53.232;6.556;2023-01-23T13:51:19;10.45;;;6.68;;
29358;SDS011;16347;53.232;6.556;2023-01-23T13:54:08;12.27;;;7.00;;
29358;SDS011;16347;53.232;6.556;2023-01-23T13:57:12;15.77;;;6.80;;
29358;SDS011;16347;53.232;6.556;2023-01-23T13:59:56;11.00;;;6.50;;
29358;SDS011;16347;53.232;6.556;2023-01-23T14:02:44;12.35;;;6.15;;
29358;SDS011;16347;53.232;6.556;2023-01-23T14:06:01;11.32;;;6.45;;
29358;SDS011;16347;53.232;6.556;2023-01-23T14:08:46;14.40;;;8.32;;
29358;SDS011;16347;53.232;6.556;2023-01-23T14:18:21;11.55;;;6.32;;
29358;SDS011;16347;53.232;6.556;2023-01-23T14:24:39;10.57;;;6.63;;
29358;SDS011;16347;53.232;6.556;2023-01-23T14:27:16;11.52;;;7.70;;
29358;SDS011;16347;53.232;6.556;2023-01-23T14:29:56;12.07;;;6.95;;
29358;SDS011;16347;53.232;6.556;2023-01-23T14:32:25;11.75;;;7.43;;
29358;SDS011;16347;53.232;6.556;2023-01-23T14:34:57;14.15;;;7.65;;
29358;SDS011;16347;53.232;6.556;2023-01-23T14:37:27;14.60;;;7.57;;
29358;SDS011;16347;53.232;6.556;2023-01-23T14:39:57;12.02;;;7.50;;
29358;SDS011;16347;53.232;6.556;2023-01-23T14:42:38;13.63;;;7.63;;
29358;SDS011;16347;53.232;6.556;2023-01-23T14:45:07;16.27;;;7.65;;
29358;SDS011;16347;53.232;6.556;2023-01-23T14:47:41;13.05;;;7.15;;
29358;SDS011;16347;53.232;6.556;2023-01-23T14:50:20;12.52;;;7.28;;
29358;SDS011;16347;53.232;6.556;2023-01-23T14:52:55;14.50;;;8.83;;
29358;SDS011;16347;53.232;6.556;2023-01-23T14:55:25;21.75;;;7.97;;
29358;SDS011;16347;53.232;6.556;2023-01-23T14:57:57;13.48;;;7.55;;
29358;SDS011;16347;53.232;6.556;2023-01-23T15:00:27;10.13;;;6.53;;
29358;SDS011;16347;53.232;6.556;2023-01-23T15:02:56;9.98;;;5.75;;
29358;SDS011;16347;53.232;6.556;2023-01-23T15:05:26;13.95;;;6.60;;
29358;SDS011;16347;53.232;6.556;2023-01-23T15:07:55;12.13;;;6.68;;
29358;SDS011;16347;53.232;6.556;2023-01-23T15:10:25;10.05;;;6.53;;
29358;SDS011;16347;53.232;6.556;2023-01-23T15:12:56;9.65;;;6.20;;
29358;SDS011;16347;53.232;6.556;2023-01-23T15:15:28;10.77;;;5.53;;
29358;SDS011;16347;53.232;6.556;2023-01-23T15:17:59;10.00;;;6.03;;
29358;SDS011;16347;53.232;6.556;2023-01-23T15:20:31;9.80;;;5.80;;
29358;SDS011;16347;53.232;6.556;2023-01-23T15:23:20;10.10;;;6.43;;
29358;SDS011;16347;53.232;6.556;2023-01-23T15:26:10;13.40;;;6.57;;
29358;SDS011;16347;53.232;6.556;2023-01-23T15:28:50;15.27;;;8.52;;
29358;SDS011;16347;53.232;6.556;2023-01-23T15:31:25;13.77;;;7.80;;
29358;SDS011;16347;53.232;6.556;2023-01-23T15:33:56;16.17;;;7.45;;
29358;SDS011;16347;53.232;6.556;2023-01-23T15:36:48;13.00;;;7.57;;
29358;SDS011;16347;53.232;6.556;2023-01-23T15:39:20;11.60;;;7.18;;
29358;SDS011;16347;53.232;6.556;2023-01-23T15:41:50;13.75;;;7.60;;
29358;SDS011;16347;53.232;6.556;2023-01-23T15:44:20;15.90;;;8.55;;
29358;SDS011;16347;53.232;6.556;2023-01-23T15:46:53;15.20;;;7.68;;
29358;SDS011;16347;53.232;6.556;2023-01-23T15:49:22;11.15;;;7.03;;